createdAt,value
2017-03-21T00:00:23.948Z,0
2017-03-21T00:01:04.443Z,0
2017-03-21T00:01:44.948Z,0
2017-03-21T00:02:25.615Z,0
2017-03-21T00:03:06.117Z,0
2017-03-21T00:03:46.617Z,0
2017-03-21T00:04:27.112Z,0
2017-03-21T00:05:07.608Z,0
2017-03-21T00:05:48.059Z,0
2017-03-21T00:06:28.526Z,0
2017-03-21T00:07:09.002Z,0
2017-03-21T00:07:49.475Z,0
2017-03-21T00:08:29.936Z,0
2017-03-21T00:09:10.401Z,0
2017-03-21T00:09:50.940Z,0
2017-03-21T00:10:31.404Z,0
2017-03-21T00:11:11.877Z,0
2017-03-21T00:11:52.407Z,0
2017-03-21T00:12:32.871Z,0
2017-03-21T00:13:13.365Z,0
2017-03-21T00:13:53.920Z,0
2017-03-21T00:14:34.441Z,0
2017-03-21T00:15:14.868Z,0
2017-03-21T00:15:55.331Z,0
2017-03-21T00:16:35.801Z,0
2017-03-21T00:17:16.298Z,0
2017-03-21T00:17:56.782Z,0
2017-03-21T00:18:37.267Z,0
2017-03-21T00:19:17.757Z,0
2017-03-21T00:19:58.259Z,0
2017-03-21T00:20:38.774Z,0
2017-03-21T00:21:19.247Z,0
2017-03-21T00:21:59.735Z,0
2017-03-21T00:22:40.240Z,0
2017-03-21T00:23:20.726Z,0
2017-03-21T00:24:01.217Z,0
2017-03-21T00:24:41.688Z,0
2017-03-21T00:25:22.172Z,0
2017-03-21T00:26:02.661Z,0
2017-03-21T00:26:43.108Z,0
2017-03-21T00:27:23.625Z,0
2017-03-21T00:28:04.104Z,0
2017-03-21T00:28:44.597Z,0
2017-03-21T00:29:25.156Z,0
2017-03-21T00:30:05.648Z,0
2017-03-21T00:30:46.105Z,0
2017-03-21T00:31:26.583Z,0
2017-03-21T00:32:07.052Z,0
2017-03-21T00:32:47.527Z,0
2017-03-21T00:33:28.006Z,0
2017-03-21T00:34:08.502Z,0
2017-03-21T00:34:48.983Z,0
2017-03-21T00:35:29.490Z,0
2017-03-21T00:36:09.974Z,0
2017-03-21T00:36:50.460Z,0
2017-03-21T00:37:30.931Z,0
2017-03-21T00:38:11.387Z,0
2017-03-21T00:38:51.861Z,0
2017-03-21T00:39:32.343Z,0
2017-03-21T00:40:15.691Z,0
2017-03-21T00:40:56.165Z,0
2017-03-21T00:41:36.619Z,0
2017-03-21T00:42:17.107Z,0
2017-03-21T00:42:57.607Z,0
2017-03-21T00:43:38.080Z,0
2017-03-21T00:44:18.547Z,0
2017-03-21T00:44:59.047Z,0
2017-03-21T00:45:39.536Z,0
2017-03-21T00:46:20.048Z,0
2017-03-21T00:47:00.511Z,0
2017-03-21T00:47:40.972Z,0
2017-03-21T00:48:21.476Z,0
2017-03-21T00:49:01.948Z,0
2017-03-21T00:49:42.481Z,0
2017-03-21T00:50:22.953Z,0
2017-03-21T00:51:03.499Z,0
2017-03-21T00:51:43.940Z,0
2017-03-21T00:52:24.400Z,0
2017-03-21T00:53:04.857Z,0
2017-03-21T00:53:45.390Z,0
2017-03-21T00:54:25.858Z,0
2017-03-21T00:55:06.307Z,0
2017-03-21T00:55:46.801Z,0
2017-03-21T00:56:27.272Z,0
2017-03-21T00:57:07.744Z,0
2017-03-21T00:57:48.241Z,0
2017-03-21T00:58:28.707Z,0
2017-03-21T00:59:09.182Z,0
2017-03-21T00:59:49.664Z,0
2017-03-21T01:00:30.153Z,0
2017-03-21T01:01:10.619Z,0
2017-03-21T01:01:51.084Z,0
2017-03-21T01:02:31.535Z,0
2017-03-21T01:03:12.009Z,0
2017-03-21T01:03:52.514Z,0
2017-03-21T01:04:33.003Z,0
2017-03-21T01:05:13.453Z,0
2017-03-21T01:05:53.983Z,0
2017-03-21T01:06:34.445Z,0
2017-03-21T01:07:14.910Z,0
2017-03-21T01:07:55.387Z,0
2017-03-21T01:08:35.899Z,0
2017-03-21T01:09:16.373Z,0
2017-03-21T01:09:56.854Z,0
2017-03-21T01:10:37.304Z,0
2017-03-21T01:11:17.797Z,0
2017-03-21T01:11:58.297Z,0
2017-03-21T01:12:38.769Z,0
2017-03-21T01:13:19.251Z,0
2017-03-21T01:13:59.756Z,0
2017-03-21T01:14:40.266Z,0
2017-03-21T01:15:20.724Z,0
2017-03-21T01:16:01.203Z,0
2017-03-21T01:16:41.720Z,0
2017-03-21T01:17:22.214Z,0
2017-03-21T01:18:02.656Z,0
2017-03-21T01:18:43.197Z,0
2017-03-21T01:19:23.702Z,0
2017-03-21T01:20:04.170Z,0
2017-03-21T01:20:44.649Z,0
2017-03-21T01:21:25.121Z,0
2017-03-21T01:22:05.624Z,0
2017-03-21T01:24:23.984Z,0
2017-03-21T01:25:04.478Z,0
2017-03-21T01:25:44.974Z,0
2017-03-21T01:26:25.418Z,0
2017-03-21T01:27:05.867Z,0
2017-03-21T01:27:46.351Z,0
2017-03-21T01:28:26.814Z,0
2017-03-21T01:29:07.291Z,0
2017-03-21T01:29:47.790Z,0
2017-03-21T01:30:28.269Z,0
2017-03-21T01:31:08.726Z,0
2017-03-21T01:31:49.219Z,0
2017-03-21T01:32:29.741Z,0
2017-03-21T01:33:10.255Z,0
2017-03-21T01:33:50.707Z,0
2017-03-21T01:34:31.181Z,0
2017-03-21T01:35:11.660Z,0
2017-03-21T01:35:52.183Z,0
2017-03-21T01:36:32.734Z,0
2017-03-21T01:37:13.177Z,0
2017-03-21T01:37:53.623Z,0
2017-03-21T01:38:34.132Z,0
2017-03-21T01:39:14.598Z,0
2017-03-21T01:39:55.082Z,0
2017-03-21T01:40:35.579Z,0
2017-03-21T01:41:16.091Z,0
2017-03-21T01:41:56.550Z,0
2017-03-21T01:42:37.030Z,0
2017-03-21T01:43:17.522Z,0
2017-03-21T01:43:58.015Z,0
2017-03-21T01:44:38.465Z,0
2017-03-21T01:45:18.943Z,0
2017-03-21T01:45:59.451Z,0
2017-03-21T01:46:39.904Z,0
2017-03-21T01:47:20.384Z,0
2017-03-21T01:48:00.872Z,0
2017-03-21T01:48:41.352Z,0
2017-03-21T01:49:21.833Z,0
2017-03-21T01:50:02.312Z,0
2017-03-21T01:50:42.805Z,0
2017-03-21T01:51:23.301Z,0
2017-03-21T01:52:03.836Z,0
2017-03-21T01:52:44.325Z,0
2017-03-21T01:53:24.804Z,0
2017-03-21T01:54:05.302Z,0
2017-03-21T01:54:45.802Z,0
2017-03-21T01:55:26.290Z,0
2017-03-21T01:56:06.748Z,0
2017-03-21T01:56:47.224Z,0
2017-03-21T01:57:27.705Z,0
2017-03-21T01:58:08.181Z,0
2017-03-21T01:58:48.673Z,0
2017-03-21T01:59:29.162Z,0
2017-03-21T02:00:09.636Z,0
2017-03-21T02:00:50.153Z,0
2017-03-21T02:01:30.619Z,0
2017-03-21T02:02:11.136Z,0
2017-03-21T02:02:51.581Z,0
2017-03-21T02:03:32.096Z,0
2017-03-21T02:04:12.573Z,0
2017-03-21T02:04:53.056Z,0
2017-03-21T02:05:33.531Z,0
2017-03-21T02:06:14.015Z,0
2017-03-21T02:06:54.473Z,0
2017-03-21T02:07:34.982Z,0
2017-03-21T02:08:15.460Z,0
2017-03-21T02:08:55.941Z,0
2017-03-21T02:09:36.417Z,0
2017-03-21T02:10:16.916Z,0
2017-03-21T02:10:57.419Z,0
2017-03-21T02:11:37.873Z,0
2017-03-21T02:12:18.365Z,0
2017-03-21T02:12:58.811Z,0
2017-03-21T02:13:39.293Z,0
2017-03-21T02:14:19.769Z,0
2017-03-21T02:15:00.270Z,0
2017-03-21T02:15:40.743Z,0
2017-03-21T02:16:21.226Z,0
2017-03-21T02:17:01.741Z,0
2017-03-21T02:17:42.171Z,0
2017-03-21T02:18:22.681Z,0
2017-03-21T02:19:03.143Z,0
2017-03-21T02:19:43.638Z,0
2017-03-21T02:20:24.127Z,0
2017-03-21T02:21:04.587Z,0
2017-03-21T02:21:45.073Z,0
2017-03-21T02:22:25.557Z,0
2017-03-21T02:23:06.028Z,0
2017-03-21T02:23:46.518Z,0
2017-03-21T02:24:26.996Z,0
2017-03-21T02:25:07.464Z,0
2017-03-21T02:25:47.938Z,0
2017-03-21T02:26:28.431Z,0
2017-03-21T02:27:08.950Z,0
2017-03-21T02:27:49.417Z,0
2017-03-21T02:28:29.896Z,0
2017-03-21T02:29:10.409Z,0
2017-03-21T02:29:50.874Z,0
2017-03-21T02:30:31.364Z,0
2017-03-21T02:31:11.827Z,0
2017-03-21T02:31:52.304Z,0
2017-03-21T02:32:32.756Z,0
2017-03-21T02:33:13.234Z,0
2017-03-21T02:33:53.712Z,0
2017-03-21T02:34:34.194Z,0
2017-03-21T02:35:14.666Z,0
2017-03-21T02:35:55.117Z,0
2017-03-21T02:36:35.599Z,0
2017-03-21T02:37:16.124Z,0
2017-03-21T02:37:56.574Z,0
2017-03-21T02:38:37.105Z,0
2017-03-21T02:39:17.614Z,0
2017-03-21T02:39:58.078Z,0
2017-03-21T02:40:38.558Z,0
2017-03-21T02:41:19.049Z,0
2017-03-21T02:41:59.535Z,0
2017-03-21T02:42:40.000Z,0
2017-03-21T02:43:20.497Z,0
2017-03-21T02:44:00.967Z,0
2017-03-21T02:44:41.466Z,0
2017-03-21T02:45:21.969Z,0
2017-03-21T02:46:02.452Z,0
2017-03-21T02:46:42.910Z,0
2017-03-21T02:47:23.466Z,0
2017-03-21T02:48:03.982Z,0
2017-03-21T02:48:44.435Z,0
2017-03-21T02:49:24.894Z,0
2017-03-21T02:50:05.374Z,0
2017-03-21T02:50:45.827Z,0
2017-03-21T02:51:26.302Z,0
2017-03-21T02:52:06.775Z,0
2017-03-21T02:52:47.249Z,0
2017-03-21T02:53:27.727Z,0
2017-03-21T02:54:08.230Z,0
2017-03-21T02:54:48.726Z,0
2017-03-21T02:55:29.215Z,0
2017-03-21T02:56:09.730Z,0
2017-03-21T02:56:50.194Z,0
2017-03-21T02:57:30.659Z,0
2017-03-21T02:58:11.144Z,0
2017-03-21T02:58:51.639Z,0
2017-03-21T02:59:32.120Z,0
2017-03-21T03:00:12.604Z,0
2017-03-21T03:00:53.094Z,0
2017-03-21T03:01:33.563Z,0
2017-03-21T03:02:14.033Z,0
2017-03-21T03:02:54.541Z,0
2017-03-21T03:03:34.990Z,0
2017-03-21T03:04:15.477Z,0
2017-03-21T03:04:55.961Z,0
2017-03-21T03:05:36.466Z,0
2017-03-21T03:06:16.969Z,0
2017-03-21T03:06:57.436Z,0
2017-03-21T03:07:37.916Z,0
2017-03-21T03:08:18.390Z,0
2017-03-21T03:08:58.882Z,0
2017-03-21T03:09:39.333Z,0
2017-03-21T03:10:19.807Z,0
2017-03-21T03:11:00.286Z,0
2017-03-21T03:11:40.790Z,0
2017-03-21T03:12:21.258Z,0
2017-03-21T03:13:01.707Z,0
2017-03-21T03:13:42.175Z,0
2017-03-21T03:14:22.693Z,0
2017-03-21T03:15:03.197Z,0
2017-03-21T03:15:43.677Z,0
2017-03-21T03:16:24.168Z,0
2017-03-21T03:17:04.644Z,0
2017-03-21T03:17:45.139Z,0
2017-03-21T03:18:25.630Z,0
2017-03-21T03:19:06.127Z,0
2017-03-21T03:19:46.602Z,0
2017-03-21T03:20:27.082Z,0
2017-03-21T03:21:07.570Z,0
2017-03-21T03:21:48.057Z,0
2017-03-21T03:22:28.555Z,0
2017-03-21T03:23:09.065Z,0
2017-03-21T03:23:49.572Z,0
2017-03-21T03:24:30.031Z,0
2017-03-21T03:25:10.473Z,0
2017-03-21T03:25:50.935Z,0
2017-03-21T03:26:31.460Z,0
2017-03-21T03:27:11.964Z,0
2017-03-21T03:27:52.436Z,0
2017-03-21T03:28:32.935Z,0
2017-03-21T03:29:13.400Z,0
2017-03-21T03:29:53.872Z,0
2017-03-21T03:30:34.383Z,0
2017-03-21T03:31:14.852Z,0
2017-03-21T03:31:55.314Z,0
2017-03-21T03:32:35.823Z,0
2017-03-21T03:33:16.294Z,0
2017-03-21T03:33:56.803Z,0
2017-03-21T03:34:37.270Z,0
2017-03-21T03:35:17.749Z,0
2017-03-21T03:35:58.281Z,0
2017-03-21T03:36:38.741Z,0
2017-03-21T03:37:19.183Z,0
2017-03-21T03:37:59.661Z,0
2017-03-21T03:38:40.151Z,0
2017-03-21T03:39:20.660Z,0
2017-03-21T03:40:01.098Z,0
2017-03-21T03:40:41.593Z,0
2017-03-21T03:41:22.058Z,0
2017-03-21T03:42:02.517Z,0
2017-03-21T03:42:42.988Z,0
2017-03-21T03:43:23.516Z,0
2017-03-21T03:44:04.000Z,0
2017-03-21T03:44:44.560Z,0
2017-03-21T03:45:24.971Z,0
2017-03-21T03:46:05.451Z,0
2017-03-21T03:46:45.939Z,0
2017-03-21T03:47:26.422Z,0
2017-03-21T03:48:06.892Z,0
2017-03-21T03:48:47.374Z,0
2017-03-21T03:49:27.830Z,0
2017-03-21T03:50:08.319Z,0
2017-03-21T03:50:48.807Z,0
2017-03-21T03:51:29.305Z,0
2017-03-21T03:52:09.816Z,0
2017-03-21T03:52:50.268Z,0
2017-03-21T03:53:30.753Z,0
2017-03-21T03:54:11.228Z,0
2017-03-21T03:54:51.709Z,0
2017-03-21T03:55:32.195Z,0
2017-03-21T03:56:12.677Z,0
2017-03-21T03:56:53.182Z,0
2017-03-21T03:57:33.628Z,0
2017-03-21T03:58:14.131Z,0
2017-03-21T03:58:54.642Z,0
2017-03-21T03:59:35.106Z,0
2017-03-21T04:00:15.614Z,0
2017-03-21T04:00:56.100Z,0
2017-03-21T04:01:36.590Z,0
2017-03-21T04:02:17.087Z,0
2017-03-21T04:02:57.583Z,0
2017-03-21T04:03:38.074Z,0
2017-03-21T04:04:18.551Z,0
2017-03-21T04:04:59.035Z,0
2017-03-21T04:05:39.517Z,0
2017-03-21T04:06:19.993Z,0
2017-03-21T04:07:00.456Z,0
2017-03-21T04:07:40.988Z,0
2017-03-21T04:08:21.470Z,0
2017-03-21T04:09:01.926Z,0
2017-03-21T04:09:42.436Z,0
2017-03-21T04:10:22.905Z,0
2017-03-21T04:11:03.396Z,0
2017-03-21T04:11:43.866Z,0
2017-03-21T04:12:24.335Z,0
2017-03-21T04:13:04.794Z,0
2017-03-21T04:13:45.276Z,0
2017-03-21T04:14:25.923Z,0
2017-03-21T04:15:06.406Z,0
2017-03-21T04:15:46.894Z,0
2017-03-21T04:16:27.390Z,0
2017-03-21T04:17:07.862Z,0
2017-03-21T04:17:48.319Z,0
2017-03-21T04:18:28.826Z,0
2017-03-21T04:19:09.314Z,0
2017-03-21T04:19:49.797Z,0
2017-03-21T04:20:30.289Z,0
2017-03-21T04:21:10.772Z,0
2017-03-21T04:21:51.244Z,0
2017-03-21T04:22:31.744Z,0
2017-03-21T04:23:12.221Z,0
2017-03-21T04:23:52.677Z,0
2017-03-21T04:24:33.139Z,0
2017-03-21T04:25:13.653Z,0
2017-03-21T04:25:54.177Z,0
2017-03-21T04:26:34.660Z,0
2017-03-21T04:27:15.122Z,0
2017-03-21T04:27:55.577Z,0
2017-03-21T04:28:36.042Z,0
2017-03-21T04:29:16.499Z,0
2017-03-21T04:29:56.986Z,0
2017-03-21T04:30:37.471Z,0
2017-03-21T04:31:17.968Z,0
2017-03-21T04:31:58.429Z,0
2017-03-21T04:32:38.948Z,0
2017-03-21T04:33:19.442Z,0
2017-03-21T04:33:59.912Z,0
2017-03-21T04:34:40.398Z,0
2017-03-21T04:35:20.884Z,0
2017-03-21T04:36:01.408Z,0
2017-03-21T04:36:41.896Z,0
2017-03-21T04:37:22.436Z,0
2017-03-21T04:38:02.880Z,0
2017-03-21T04:38:43.349Z,0
2017-03-21T04:39:23.832Z,0
2017-03-21T04:40:04.319Z,0
2017-03-21T04:40:44.782Z,0
2017-03-21T04:41:25.294Z,0
2017-03-21T04:42:05.784Z,0
2017-03-21T04:42:46.327Z,0
2017-03-21T04:43:26.768Z,0
2017-03-21T04:44:07.247Z,0
2017-03-21T04:44:47.698Z,0
2017-03-21T04:45:28.199Z,0
2017-03-21T04:46:08.699Z,0
2017-03-21T04:46:49.217Z,0
2017-03-21T04:47:29.692Z,0
2017-03-21T04:48:10.179Z,0
2017-03-21T04:48:50.660Z,0
2017-03-21T04:49:31.175Z,0
2017-03-21T04:50:11.629Z,0
2017-03-21T04:50:52.113Z,0
2017-03-21T04:51:32.551Z,4
2017-03-21T04:52:13.042Z,4
2017-03-21T04:52:53.534Z,4
2017-03-21T04:53:33.991Z,0
2017-03-21T04:54:14.468Z,0
2017-03-21T04:54:54.928Z,4
2017-03-21T04:55:35.435Z,4
2017-03-21T04:56:15.922Z,4
2017-03-21T04:56:56.404Z,4
2017-03-21T04:57:36.906Z,4
2017-03-21T04:58:17.388Z,8
2017-03-21T04:58:57.859Z,4
2017-03-21T04:59:38.331Z,8
2017-03-21T05:00:18.839Z,8
2017-03-21T05:00:59.297Z,12
2017-03-21T05:01:39.776Z,8
2017-03-21T05:02:20.260Z,12
2017-03-21T05:03:00.784Z,12
2017-03-21T05:03:41.262Z,12
2017-03-21T05:04:21.790Z,16
2017-03-21T05:05:02.270Z,16
2017-03-21T05:05:42.756Z,20
2017-03-21T05:06:23.266Z,20
2017-03-21T05:07:03.727Z,24
2017-03-21T05:07:44.174Z,28
2017-03-21T05:08:24.673Z,32
2017-03-21T05:09:05.159Z,36
2017-03-21T05:09:45.635Z,36
2017-03-21T05:10:26.131Z,44
2017-03-21T05:11:06.618Z,44
2017-03-21T05:11:47.093Z,52
2017-03-21T05:12:27.804Z,56
2017-03-21T05:13:08.153Z,64
2017-03-21T05:13:48.625Z,64
2017-03-21T05:14:29.126Z,72
2017-03-21T05:15:09.781Z,84
2017-03-21T05:15:50.257Z,88
2017-03-21T05:16:30.721Z,96
2017-03-21T05:17:11.237Z,104
2017-03-21T05:17:51.716Z,112
2017-03-21T05:18:32.241Z,124
2017-03-21T05:19:12.735Z,132
2017-03-21T05:19:53.200Z,144
2017-03-21T05:20:33.694Z,156
2017-03-21T05:21:14.191Z,164
2017-03-21T05:21:54.682Z,180
2017-03-21T05:22:35.143Z,192
2017-03-21T05:23:15.645Z,208
2017-03-21T05:23:56.150Z,220
2017-03-21T05:24:36.655Z,232
2017-03-21T05:25:17.171Z,248
2017-03-21T05:25:57.796Z,264
2017-03-21T05:26:38.303Z,280
2017-03-21T05:27:18.887Z,296
2017-03-21T05:27:59.381Z,312
2017-03-21T05:28:40.046Z,328
2017-03-21T05:29:20.524Z,348
2017-03-21T05:30:01.007Z,364
2017-03-21T05:30:41.519Z,384
2017-03-21T05:31:23.610Z,404
2017-03-21T05:32:04.153Z,424
2017-03-21T05:32:44.647Z,444
2017-03-21T05:33:25.108Z,460
2017-03-21T05:34:05.588Z,484
2017-03-21T05:34:46.063Z,504
2017-03-21T05:35:26.561Z,524
2017-03-21T05:36:07.063Z,544
2017-03-21T05:36:47.558Z,564
2017-03-21T05:37:28.031Z,588
2017-03-21T05:38:08.516Z,608
2017-03-21T05:38:49.002Z,628
2017-03-21T05:39:29.457Z,648
2017-03-21T05:40:09.917Z,672
2017-03-21T05:40:50.403Z,696
2017-03-21T05:41:30.881Z,720
2017-03-21T05:42:11.357Z,740
2017-03-21T05:42:51.822Z,764
2017-03-21T05:43:32.310Z,784
2017-03-21T05:44:12.795Z,808
2017-03-21T05:44:53.282Z,828
2017-03-21T05:45:33.738Z,852
2017-03-21T05:46:14.209Z,872
2017-03-21T05:46:54.691Z,896
2017-03-21T05:47:35.203Z,920
2017-03-21T05:48:15.641Z,944
2017-03-21T05:48:56.117Z,960
2017-03-21T05:49:36.678Z,984
2017-03-21T05:50:17.137Z,1008
2017-03-21T05:50:57.650Z,1028
2017-03-21T05:51:38.154Z,1052
2017-03-21T05:52:18.634Z,1072
2017-03-21T05:52:59.126Z,1092
2017-03-21T05:53:39.588Z,1116
2017-03-21T05:54:20.051Z,1136
2017-03-21T05:55:00.528Z,1156
2017-03-21T05:55:41.013Z,1176
2017-03-21T05:56:21.420Z,1200
2017-03-21T05:57:01.920Z,1220
2017-03-21T05:57:42.368Z,1244
2017-03-21T05:58:22.847Z,1260
2017-03-21T05:59:03.305Z,1284
2017-03-21T05:59:43.803Z,1304
2017-03-21T06:00:24.328Z,1324
2017-03-21T06:01:04.798Z,1344
2017-03-21T06:01:45.520Z,1368
2017-03-21T06:02:26.128Z,1388
2017-03-21T06:03:06.632Z,1404
2017-03-21T06:03:47.110Z,1424
2017-03-21T06:04:27.682Z,1444
2017-03-21T06:05:08.196Z,1464
2017-03-21T06:05:48.675Z,1480
2017-03-21T06:06:29.205Z,1504
2017-03-21T06:07:09.684Z,1520
2017-03-21T06:07:50.198Z,1540
2017-03-21T06:08:30.697Z,1556
2017-03-21T06:09:11.160Z,1576
2017-03-21T06:09:51.618Z,1592
2017-03-21T06:10:32.084Z,1616
2017-03-21T06:11:12.572Z,1628
2017-03-21T06:11:53.094Z,1644
2017-03-21T06:12:33.585Z,1668
2017-03-21T06:13:14.062Z,1684
2017-03-21T06:13:54.511Z,1696
2017-03-21T06:14:34.973Z,1684
2017-03-21T06:15:15.467Z,1764
2017-03-21T06:15:55.927Z,1736
2017-03-21T06:16:36.418Z,1748
2017-03-21T06:17:16.888Z,1736
2017-03-21T06:17:58.246Z,1792
2017-03-21T06:18:38.702Z,1796
2017-03-21T06:19:19.242Z,1812
2017-03-21T06:19:59.743Z,1832
2017-03-21T06:20:40.186Z,1864
2017-03-21T06:21:20.888Z,1880
2017-03-21T06:22:01.426Z,1904
2017-03-21T06:22:41.879Z,1880
2017-03-21T06:23:22.361Z,1908
2017-03-21T06:24:02.822Z,1964
2017-03-21T06:24:43.308Z,1996
2017-03-21T06:25:23.821Z,2008
2017-03-21T06:26:04.279Z,2040
2017-03-21T06:26:44.794Z,2072
2017-03-21T06:27:25.273Z,2136
2017-03-21T06:28:05.758Z,2140
2017-03-21T06:28:46.217Z,2280
2017-03-21T06:29:26.677Z,2372
2017-03-21T06:30:07.157Z,2344
2017-03-21T06:30:47.617Z,2336
2017-03-21T06:31:28.092Z,2220
2017-03-21T06:32:08.566Z,2132
2017-03-21T06:32:49.085Z,2168
2017-03-21T06:33:29.585Z,2120
2017-03-21T06:34:10.081Z,2156
2017-03-21T06:34:50.607Z,2192
2017-03-21T06:35:31.062Z,2156
2017-03-21T06:36:11.554Z,2204
2017-03-21T06:36:52.034Z,2216
2017-03-21T06:37:32.481Z,2200
2017-03-21T06:38:12.933Z,2204
2017-03-21T06:38:53.397Z,2248
2017-03-21T06:39:33.887Z,2204
2017-03-21T06:40:14.363Z,2184
2017-03-21T06:40:54.803Z,2148
2017-03-21T06:41:35.301Z,2316
2017-03-21T06:42:15.783Z,2288
2017-03-21T06:42:56.269Z,2596
2017-03-21T06:43:36.766Z,2572
2017-03-21T06:44:17.199Z,2740
2017-03-21T06:44:57.685Z,2732
2017-03-21T06:45:38.168Z,2736
2017-03-21T06:46:18.654Z,2764
2017-03-21T06:46:59.147Z,3100
2017-03-21T06:47:39.664Z,2884
2017-03-21T06:48:20.134Z,3400
2017-03-21T06:49:00.634Z,2884
2017-03-21T06:49:41.096Z,2940
2017-03-21T06:50:21.565Z,2696
2017-03-21T06:51:02.045Z,2680
2017-03-21T06:51:42.522Z,2976
2017-03-21T06:52:23.133Z,2676
2017-03-21T06:53:03.662Z,2744
2017-03-21T06:53:44.164Z,2976
2017-03-21T06:54:24.603Z,2860
2017-03-21T06:55:05.201Z,2440
2017-03-21T06:55:45.691Z,2496
2017-03-21T06:58:00.454Z,2952
2017-03-21T06:58:40.829Z,2580
2017-03-21T06:59:21.313Z,2672
2017-03-21T07:00:01.779Z,2596
2017-03-21T07:00:42.252Z,2776
2017-03-21T07:01:22.733Z,2920
2017-03-21T07:02:03.229Z,2932
2017-03-21T07:02:43.685Z,3316
2017-03-21T07:03:24.158Z,2716
2017-03-21T07:04:04.708Z,2748
2017-03-21T07:04:45.162Z,2664
2017-03-21T07:05:25.648Z,2736
2017-03-21T07:06:06.136Z,3036
2017-03-21T07:06:46.665Z,3292
2017-03-21T07:07:27.098Z,3036
2017-03-21T07:08:07.576Z,3572
2017-03-21T07:08:48.044Z,4948
2017-03-21T07:09:28.548Z,4476
2017-03-21T07:10:09.044Z,3532
2017-03-21T07:10:49.513Z,3592
2017-03-21T07:11:29.984Z,3712
2017-03-21T07:12:10.471Z,3788
2017-03-21T07:12:50.951Z,3468
2017-03-21T07:13:31.469Z,3720
2017-03-21T07:14:11.922Z,3848
2017-03-21T07:14:52.430Z,4680
2017-03-21T07:15:32.888Z,4584
2017-03-21T07:16:13.307Z,3608
2017-03-21T07:16:53.789Z,2864
2017-03-21T07:17:34.290Z,2948
2017-03-21T07:18:14.840Z,2916
2017-03-21T07:18:55.296Z,3004
2017-03-21T07:19:35.768Z,3656
2017-03-21T07:20:16.263Z,3592
2017-03-21T07:20:56.724Z,3912
2017-03-21T07:21:37.253Z,4292
2017-03-21T07:22:17.681Z,5136
2017-03-21T07:22:58.221Z,4428
2017-03-21T07:23:38.643Z,4704
2017-03-21T07:24:19.125Z,5056
2017-03-21T07:24:59.585Z,5148
2017-03-21T07:25:40.138Z,5832
2017-03-21T07:26:20.608Z,8132
2017-03-21T07:27:01.060Z,6280
2017-03-21T07:27:41.520Z,4208
2017-03-21T07:28:21.993Z,4684
2017-03-21T07:29:02.590Z,4672
2017-03-21T07:29:45.975Z,3980
2017-03-21T07:30:26.490Z,3804
2017-03-21T07:31:06.949Z,4580
2017-03-21T07:31:47.444Z,5036
2017-03-21T07:32:27.968Z,4104
2017-03-21T07:33:08.451Z,3408
2017-03-21T07:33:48.916Z,4548
2017-03-21T07:34:29.426Z,3652
2017-03-21T07:35:09.911Z,3324
2017-03-21T07:35:50.405Z,3108
2017-03-21T07:36:31.344Z,3084
2017-03-21T07:37:11.869Z,4204
2017-03-21T07:37:52.349Z,4008
2017-03-21T07:38:32.800Z,3296
2017-03-21T07:39:13.401Z,3440
2017-03-21T07:39:54.980Z,3608
2017-03-21T07:40:35.459Z,3432
2017-03-21T07:41:15.945Z,3428
2017-03-21T07:41:56.606Z,3020
2017-03-21T07:42:37.358Z,3668
2017-03-21T07:43:17.868Z,5396
2017-03-21T07:43:58.417Z,6412
2017-03-21T07:44:38.905Z,5772
2017-03-21T07:45:19.369Z,4756
2017-03-21T07:45:59.880Z,3688
2017-03-21T07:46:40.367Z,3232
2017-03-21T07:47:20.877Z,3112
2017-03-21T07:48:01.355Z,3060
2017-03-21T07:48:41.851Z,3148
2017-03-21T07:49:22.366Z,3328
2017-03-21T07:50:02.854Z,3988
2017-03-21T07:50:43.373Z,4576
2017-03-21T07:51:23.915Z,5096
2017-03-21T07:52:04.394Z,8032
2017-03-21T07:52:46.937Z,6900
2017-03-21T07:53:27.578Z,6476
2017-03-21T07:54:08.236Z,5028
2017-03-21T07:54:49.348Z,5752
2017-03-21T07:55:29.816Z,8372
2017-03-21T07:56:10.284Z,5636
2017-03-21T07:56:50.790Z,4804
2017-03-21T07:57:33.475Z,6960
2017-03-21T07:58:17.184Z,7720
2017-03-21T07:58:58.892Z,6096
2017-03-21T07:59:40.871Z,5744
2017-03-21T08:00:21.445Z,5512
2017-03-21T08:01:02.666Z,5684
2017-03-21T08:01:43.126Z,4796
2017-03-21T08:02:23.588Z,4100
2017-03-21T08:03:04.112Z,4032
2017-03-21T08:03:44.553Z,4508
2017-03-21T08:04:25.094Z,3812
2017-03-21T08:05:05.519Z,3640
2017-03-21T08:05:45.996Z,3688
2017-03-21T08:06:26.508Z,4076
2017-03-21T08:07:06.999Z,4452
2017-03-21T08:07:47.703Z,6120
2017-03-21T08:08:33.294Z,6524
2017-03-21T08:09:13.994Z,7116
2017-03-21T08:09:54.600Z,8408
2017-03-21T08:10:35.053Z,8888
2017-03-21T08:11:15.607Z,6176
2017-03-21T08:11:56.045Z,8248
2017-03-21T08:12:36.530Z,6724
2017-03-21T08:13:17.009Z,6436
2017-03-21T08:13:57.451Z,7836
2017-03-21T08:14:38.009Z,7236
2017-03-21T08:15:18.449Z,7572
2017-03-21T08:15:59.090Z,6672
2017-03-21T08:16:39.619Z,6240
2017-03-21T08:17:20.146Z,5528
2017-03-21T08:18:00.616Z,5588
2017-03-21T08:18:41.083Z,5624
2017-03-21T08:19:21.808Z,6000
2017-03-21T08:20:02.306Z,6724
2017-03-21T08:20:42.746Z,7484
2017-03-21T08:21:23.247Z,7928
2017-03-21T08:22:03.839Z,6316
2017-03-21T08:22:44.370Z,8448
2017-03-21T08:23:24.922Z,7140
2017-03-21T08:24:05.394Z,5172
2017-03-21T08:24:45.914Z,3672
2017-03-21T08:25:26.438Z,3996
2017-03-21T08:26:06.992Z,4824
2017-03-21T08:26:47.509Z,3580
2017-03-21T08:27:28.037Z,3844
2017-03-21T08:29:44.419Z,6248
2017-03-21T08:30:24.911Z,9412
2017-03-21T08:31:05.445Z,9296
2017-03-21T08:31:45.895Z,8192
2017-03-21T08:32:27.126Z,7456
2017-03-21T08:33:06.884Z,8964
2017-03-21T08:33:47.356Z,9460
2017-03-21T08:34:28.014Z,10036
2017-03-21T08:35:08.656Z,9696
2017-03-21T08:35:51.095Z,7612
2017-03-21T08:36:31.769Z,8152
2017-03-21T08:37:12.505Z,9920
2017-03-21T08:37:53.288Z,8912
2017-03-21T08:38:33.852Z,7460
2017-03-21T08:39:14.324Z,6980
2017-03-21T08:39:54.825Z,6288
2017-03-21T08:40:35.361Z,7172
2017-03-21T08:41:15.857Z,7220
2017-03-21T08:41:56.311Z,7164
2017-03-21T08:42:36.797Z,7768
2017-03-21T08:43:17.770Z,6396
2017-03-21T08:43:58.471Z,8708
2017-03-21T08:44:38.939Z,8024
2017-03-21T08:45:19.629Z,7836
2017-03-21T08:46:00.432Z,6992
2017-03-21T08:46:43.555Z,4948
2017-03-21T08:47:24.053Z,3960
2017-03-21T08:48:04.598Z,3932
2017-03-21T08:48:45.081Z,3528
2017-03-21T08:49:25.594Z,3840
2017-03-21T08:50:06.056Z,4456
2017-03-21T08:50:46.649Z,4740
2017-03-21T08:51:27.141Z,4136
2017-03-21T08:52:07.836Z,4276
2017-03-21T08:52:48.309Z,4808
2017-03-21T08:53:28.871Z,3720
2017-03-21T08:54:09.395Z,3372
2017-03-21T08:54:49.963Z,3480
2017-03-21T08:55:30.533Z,3484
2017-03-21T08:56:11.210Z,3496
2017-03-21T08:56:51.731Z,3992
2017-03-21T08:57:32.260Z,4224
2017-03-21T08:58:13.072Z,4172
2017-03-21T08:58:53.567Z,3652
2017-03-21T08:59:34.066Z,3868
2017-03-21T09:00:15.124Z,4180
2017-03-21T09:00:55.646Z,4736
2017-03-21T09:01:36.313Z,7628
2017-03-21T09:02:16.966Z,9416
2017-03-21T09:02:57.444Z,9872
2017-03-21T09:03:38.370Z,8444
2017-03-21T09:04:18.880Z,9484
2017-03-21T09:05:00.071Z,8240
2017-03-21T09:05:41.243Z,8608
2017-03-21T09:06:21.702Z,8716
2017-03-21T09:07:02.421Z,7748
2017-03-21T09:07:43.076Z,9864
2017-03-21T09:10:10.981Z,7588
2017-03-21T09:10:51.449Z,5124
2017-03-21T09:11:32.024Z,5188
2017-03-21T09:12:12.559Z,5704
2017-03-21T09:12:53.072Z,5288
2017-03-21T09:13:33.565Z,6072
2017-03-21T09:14:14.074Z,6732
2017-03-21T09:14:55.367Z,4712
2017-03-21T09:15:35.537Z,5520
2017-03-21T09:16:16.045Z,7208
2017-03-21T09:16:56.595Z,6552
2017-03-21T09:17:37.038Z,8312
2017-03-21T09:18:17.513Z,10720
2017-03-21T09:18:57.996Z,7800
2017-03-21T09:19:38.497Z,8428
2017-03-21T09:20:19.036Z,8900
2017-03-21T09:20:59.577Z,9760
2017-03-21T09:21:40.117Z,8240
2017-03-21T09:22:20.518Z,10016
2017-03-21T09:23:00.994Z,11720
2017-03-21T09:23:41.560Z,11204
2017-03-21T09:24:22.069Z,10684
2017-03-21T09:25:02.602Z,8516
2017-03-21T09:25:43.125Z,8016
2017-03-21T09:26:23.674Z,8668
2017-03-21T09:27:04.194Z,6756
2017-03-21T09:27:44.675Z,6868
2017-03-21T09:28:25.209Z,9080
2017-03-21T09:29:05.933Z,12260
2017-03-21T09:29:46.479Z,10620
2017-03-21T09:30:26.971Z,10348
2017-03-21T09:31:07.492Z,12124
2017-03-21T09:31:47.954Z,10620
2017-03-21T09:32:29.362Z,6748
2017-03-21T09:33:10.685Z,8900
2017-03-21T09:33:51.537Z,12724
2017-03-21T09:34:32.139Z,14156
2017-03-21T09:35:14.779Z,11228
2017-03-21T09:35:55.345Z,11460
2017-03-21T09:36:35.914Z,12912
2017-03-21T09:37:17.117Z,15304
2017-03-21T09:37:57.606Z,14092